Time,TemperatureF,DewpointF,PressureIn,WindDirection,WindDirectionDegrees,WindSpeedMPH,WindSpeedGustMPH,Humidity,HourlyPrecipIn,Conditions,Clouds,dailyrainin,SoftwareType,DateUTC
2013-04-13 00:07:00,47.7,44.9,29.68,SW,225,5.8,-999.0,90,-99.99,,,0.00,Acu-Link.com,2013-04-13 04:07:00,
2013-04-13 06:56:00,35.8,33.4,29.75,East,90,2.2,-999.0,91,-99.99,,,0.00,Acu-Link.com,2013-04-13 10:56:00,
2013-04-13 07:26:00,37.8,35.1,29.76,South,180,0.0,-999.0,90,-99.99,,,0.00,Acu-Link.com,2013-04-13 11:26:00,
2013-04-13 07:57:00,41.2,37.0,29.78,North,0,0.0,-999.0,85,-99.99,,,0.00,Acu-Link.com,2013-04-13 11:57:00,
2013-04-13 08:43:00,42.8,38.0,29.80,SSW,202,0.0,-999.0,83,-99.99,,,0.00,Acu-Link.com,2013-04-13 12:43:00,
2013-04-13 08:58:00,44.8,39.3,29.79,East,90,0.0,-999.0,81,-99.99,,,0.00,Acu-Link.com,2013-04-13 12:58:00,
2013-04-13 09:13:00,47.1,37.5,29.80,South,180,3.2,-999.0,69,-99.99,,,0.00,Acu-Link.com,2013-04-13 13:13:00,
2013-04-13 10:14:00,50.2,36.9,29.79,WNW,292,3.7,-999.0,60,-99.99,,,0.00,Acu-Link.com,2013-04-13 14:14:00,
2013-04-13 10:30:00,50.4,37.5,29.78,SSW,202,4.7,-999.0,61,-99.99,,,0.00,Acu-Link.com,2013-04-13 14:30:00,
2013-04-13 10:45:00,49.8,36.5,29.81,West,270,5.8,-999.0,60,-99.99,,,0.00,Acu-Link.com,2013-04-13 14:45:00,
2013-04-13 11:00:00,50.0,35.8,29.80,West,270,6.8,-999.0,58,-99.99,,,0.00,Acu-Link.com,2013-04-13 15:00:00,
2013-04-13 11:15:00,49.3,35.2,29.80,WNW,292,9.4,-999.0,58,-99.99,,,0.00,Acu-Link.com,2013-04-13 15:15:00,
2013-04-13 11:45:00,50.4,35.7,29.79,West,270,4.7,-999.0,57,-99.99,,,0.00,Acu-Link.com,2013-04-13 15:45:00,
2013-04-13 12:00:00,51.3,35.2,29.80,WNW,292,7.8,-999.0,54,-99.99,,,0.00,Acu-Link.com,2013-04-13 16:00:00,
2013-04-13 12:31:00,53.2,36.5,29.79,West,270,9.4,-999.0,53,-99.99,,,0.00,Acu-Link.com,2013-04-13 16:31:00,
2013-04-13 13:32:00,49.6,34.6,29.78,SSW,202,7.3,-999.0,56,-99.99,,,0.00,Acu-Link.com,2013-04-13 17:32:00,
2013-04-13 13:48:00,49.6,35.0,29.79,West,270,6.8,-999.0,57,-99.99,,,0.00,Acu-Link.com,2013-04-13 17:48:00,
2013-04-13 14:03:00,49.6,34.6,29.77,West,270,5.3,-999.0,56,-99.99,,,0.00,Acu-Link.com,2013-04-13 18:03:00,
2013-04-13 14:18:00,50.2,35.1,29.79,West,270,6.8,-999.0,56,-99.99,,,0.00,Acu-Link.com,2013-04-13 18:18:00,
2013-04-13 14:34:00,50.4,35.7,29.78,WNW,292,4.2,-999.0,57,-99.99,,,0.00,Acu-Link.com,2013-04-13 18:34:00,
2013-04-13 14:49:00,50.2,35.1,29.79,WSW,247,8.3,-999.0,56,-99.99,,,0.00,Acu-Link.com,2013-04-13 18:49:00,
2013-04-13 15:05:00,49.8,35.6,29.79,West,270,4.7,-999.0,58,-99.99,,,0.00,Acu-Link.com,2013-04-13 19:05:00,
2013-04-13 15:20:00,50.5,35.4,29.79,WNW,292,2.7,-999.0,56,-99.99,,,0.00,Acu-Link.com,2013-04-13 19:20:00,
2013-04-13 15:36:00,49.8,35.6,29.81,West,270,9.4,-999.0,58,-99.99,,,0.00,Acu-Link.com,2013-04-13 19:36:00,
2013-04-13 15:51:00,51.1,36.0,29.79,West,270,6.3,-999.0,56,-99.99,,,0.00,Acu-Link.com,2013-04-13 19:51:00,
2013-04-13 16:06:00,52.5,35.9,29.76,NW,315,6.8,-999.0,53,-99.99,,,0.00,Acu-Link.com,2013-04-13 20:06:00,
2013-04-13 16:37:00,51.6,36.4,29.77,WSW,247,4.7,-999.0,56,-99.99,,,0.00,Acu-Link.com,2013-04-13 20:37:00,
2013-04-13 16:52:00,52.2,36.1,29.78,West,270,5.3,-999.0,54,-99.99,,,0.00,Acu-Link.com,2013-04-13 20:52:00,
2013-04-13 17:07:00,55.6,37.3,29.78,NNE,22,4.2,-999.0,50,-99.99,,,0.00,Acu-Link.com,2013-04-13 21:07:00,
2013-04-13 17:22:00,53.1,36.9,29.78,NNW,337,4.7,-999.0,54,-99.99,,,0.00,Acu-Link.com,2013-04-13 21:22:00,
2013-04-13 17:37:00,55.8,37.4,29.77,ENE,67,2.2,-999.0,50,-99.99,,,0.00,Acu-Link.com,2013-04-13 21:37:00,
2013-04-13 17:53:00,56.1,37.2,29.78,WSW,247,3.2,-999.0,49,-99.99,,,0.00,Acu-Link.com,2013-04-13 21:53:00,
2013-04-13 18:08:00,54.5,35.2,29.78,WNW,292,4.2,-999.0,48,-99.99,,,0.00,Acu-Link.com,2013-04-13 22:08:00,
2013-04-13 18:24:00,53.2,36.0,29.80,WNW,292,3.2,-999.0,52,-99.99,,,0.00,Acu-Link.com,2013-04-13 22:24:00,
2013-04-13 18:39:00,52.2,36.5,29.79,West,270,1.1,-999.0,55,-99.99,,,0.00,Acu-Link.com,2013-04-13 22:39:00,
2013-04-13 18:55:00,51.1,36.0,29.79,NNW,337,0.0,-999.0,56,-99.99,,,0.00,Acu-Link.com,2013-04-13 22:55:00,
2013-04-13 19:10:00,50.2,36.0,29.79,NNW,337,3.2,-999.0,58,-99.99,,,0.00,Acu-Link.com,2013-04-13 23:10:00,
2013-04-13 19:25:00,49.5,35.8,29.81,NW,315,2.2,-999.0,59,-99.99,,,0.00,Acu-Link.com,2013-04-13 23:25:00,
2013-04-13 19:41:00,48.7,35.9,29.80,West,270,0.0,-999.0,61,-99.99,,,0.00,Acu-Link.com,2013-04-13 23:41:00,
2013-04-13 20:12:00,46.9,35.8,29.80,WNW,292,0.0,-999.0,65,-99.99,,,0.00,Acu-Link.com,2013-04-14 00:12:00,
2013-04-13 20:28:00,46.6,35.9,29.80,NNW,337,0.0,-999.0,66,-99.99,,,0.00,Acu-Link.com,2013-04-14 00:28:00,
2013-04-13 20:43:00,46.6,35.1,29.82,NNW,337,1.7,-999.0,64,-99.99,,,0.00,Acu-Link.com,2013-04-14 00:43:00,
2013-04-13 21:01:00,46.9,35.4,29.82,West,270,2.7,-999.0,64,-99.99,,,0.00,Acu-Link.com,2013-04-14 01:01:00,
2013-04-13 21:17:00,48.0,34.4,29.82,SSW,202,3.2,-999.0,59,-99.99,,,0.00,Acu-Link.com,2013-04-14 01:17:00,
2013-04-13 21:32:00,48.4,34.7,29.83,SSE,157,2.2,-999.0,59,-99.99,,,0.00,Acu-Link.com,2013-04-14 01:32:00,
2013-04-13 21:47:00,48.2,35.4,29.85,SSE,157,0.0,-999.0,61,-99.99,,,0.00,Acu-Link.com,2013-04-14 01:47:00,
2013-04-13 22:03:00,48.0,34.8,29.84,West,270,2.7,-999.0,60,-99.99,,,0.00,Acu-Link.com,2013-04-14 02:03:00,
2013-04-13 22:18:00,48.7,34.2,29.84,West,270,2.7,-999.0,57,-99.99,,,0.00,Acu-Link.com,2013-04-14 02:18:00,
2013-04-13 22:49:00,48.0,33.9,29.84,West,270,3.2,-999.0,58,-99.99,,,0.00,Acu-Link.com,2013-04-14 02:49:00,
2013-04-13 23:04:00,47.5,34.3,29.83,South,180,1.1,-999.0,60,-99.99,,,0.00,Acu-Link.com,2013-04-14 03:04:00,
2013-04-13 23:20:00,46.2,34.3,29.83,South,180,0.0,-999.0,63,-99.99,,,0.00,Acu-Link.com,2013-04-14 03:20:00,
2013-04-13 23:35:00,44.6,34.3,29.85,West,270,2.2,-999.0,67,-99.99,,,0.00,Acu-Link.com,2013-04-14 03:35:00,
2013-04-13 23:50:00,43.3,34.5,29.84,SSW,202,0.0,-999.0,71,-99.99,,,0.00,Acu-Link.com,2013-04-14 03:50:00,